Terminal Aerodrome Forecast
Issued by NWS

Home | Current Version | Previous Version | Text Only | Print | Product List | Glossary On
Versions: 1 2 3 4 5 6 7 8 9 10 11 12 13 14 15 16
000
FTUS46 KPQR 161305 AAA
TAFONP
TAF AMD
KONP 161305Z 1613/1712 VRB03KT P6SM -RADZ SCT015 OVC045
      TEMPO 1613/1617 BKN015 OVC030
     FM162000 23010KT P6SM -RADZ SCT015 OVC025
     FM170300 21004KT P6SM -RADZ BKN015 OVC025
     FM170600 20005KT 5SM -RA BR OVC025=

USA.gov is the U.S. government's official web portal to all federal, state and local government web resources and services.